Tjumen, Russia
Current Conditions -  °F | °C
As of 3:30 PM on Friday 24 Oct 2014 (Local Time) from USTR Reporting Station
Snow Showers Snow Showers  
Wind Chill:   Ceiling: Unl
Heat Index: 10°   Visibility: 5mi
Dew Point:   Wind: 4mph
Humidity: 85%   Direction: 230°SW
Pressure: 29.68"   Gusts: NA
Location:  57.15°N, 65.53°E
Report Text: USTR 241030Z 23002MPS 8000 -SHSN SCT024CB M12/M14 Q1005 TEMPO2000 SHSN BKN007 RMK QFE745/0994 12350050 03////99
Loading
Personal Weather Stations






























Interactive Weather Map
Tropical Storm Tracking
New forecast layout! Learn more

10-Day Weather Forecast

Advertisements
Track Severe Weather on mobile